createdAt,value
2019-05-19T01:52:21.526Z,99.99
2019-05-19T01:52:48.302Z,99.99
2019-05-19T01:53:48.277Z,99.99
2019-05-19T01:54:48.255Z,99.99
2019-05-19T01:55:48.248Z,99.99
2019-05-19T01:56:48.223Z,99.99
2019-05-19T01:57:48.200Z,99.99
2019-05-19T01:58:48.192Z,99.99
2019-05-19T01:59:48.167Z,99.99
2019-05-19T02:00:48.147Z,99.99
2019-05-19T02:01:48.131Z,99.99
2019-05-19T02:02:48.143Z,99.99
2019-05-19T02:03:48.089Z,99.99
2019-05-19T02:04:48.087Z,99.99
2019-05-19T02:05:48.063Z,99.99
2019-05-19T02:06:48.025Z,99.99
2019-05-19T02:07:48.011Z,99.99
2019-05-19T02:08:47.988Z,99.99
2019-05-19T02:09:47.995Z,99.99
2019-05-19T02:10:47.950Z,99.99
2019-05-19T02:11:47.954Z,99.99
2019-05-19T02:12:47.927Z,99.99
2019-05-19T02:13:47.894Z,99.99
2019-05-19T02:14:47.873Z,99.99
2019-05-19T02:15:47.853Z,99.99
2019-05-19T02:16:47.832Z,99.99
2019-05-19T02:17:47.814Z,99.99
2019-05-19T02:18:47.797Z,99.99
2019-05-19T02:19:47.775Z,99.99
2019-05-19T02:20:47.754Z,99.99
2019-05-19T02:21:47.735Z,99.99
2019-05-19T02:22:47.717Z,99.99
2019-05-19T02:23:47.709Z,99.99
2019-05-19T02:24:47.676Z,99.99
2019-05-19T02:25:47.659Z,99.99
2019-05-19T02:26:47.649Z,99.99
2019-05-19T02:27:47.626Z,99.99
2019-05-19T02:28:47.600Z,99.99
2019-05-19T02:29:47.586Z,99.99
2019-05-19T02:30:47.564Z,99.99
2019-05-19T02:31:47.546Z,99.99
2019-05-19T02:32:47.523Z,99.99
2019-05-19T02:33:47.504Z,99.99
2019-05-19T02:34:47.493Z,99.99
2019-05-19T02:35:47.465Z,99.99
2019-05-19T02:36:47.452Z,99.99
2019-05-19T02:37:47.434Z,99.99
2019-05-19T02:38:47.406Z,99.99
2019-05-19T02:39:47.396Z,99.99
2019-05-19T02:40:47.371Z,99.99
2019-05-19T02:41:47.349Z,99.99
2019-05-19T02:42:47.328Z,99.99
2019-05-19T02:43:47.317Z,99.99
2019-05-19T02:44:47.289Z,99.99
2019-05-19T02:45:47.270Z,99.99
2019-05-19T02:46:47.250Z,99.99
2019-05-19T02:47:47.231Z,99.99
2019-05-19T02:48:47.212Z,99.99
2019-05-19T02:49:47.193Z,99.99
2019-05-19T02:50:52.122Z,99.99
2019-05-19T02:51:47.155Z,99.99
2019-05-19T02:52:47.143Z,99.99
2019-05-19T02:53:47.112Z,99.99
2019-05-19T02:54:47.097Z,99.99
2019-05-19T02:55:47.081Z,99.99
2019-05-19T02:56:47.064Z,99.99
2019-05-19T02:57:47.035Z,99.99
2019-05-19T02:58:47.018Z,99.99
2019-05-19T02:59:47.006Z,99.99
2019-05-19T03:00:46.989Z,99.99
2019-05-19T03:01:46.955Z,99.99
2019-05-19T03:02:46.937Z,99.99
2019-05-19T03:06:14.656Z,99.99
2019-05-19T03:07:14.640Z,99.99
2019-05-19T03:08:14.612Z,99.99
2019-05-19T03:09:14.593Z,99.99
2019-05-19T03:10:14.575Z,99.99
2019-05-19T03:11:14.552Z,99.99
2019-05-19T03:12:47.742Z,99.99
2019-05-19T03:13:14.513Z,99.99
2019-05-19T03:14:14.493Z,99.99
2019-05-19T03:15:14.481Z,99.99
2019-05-19T03:16:14.460Z,99.99
2019-05-19T03:17:14.434Z,99.99
2019-05-19T03:20:00.058Z,99.99
2019-05-19T03:21:10.266Z,99.99
2019-05-19T03:21:59.974Z,99.99
2019-05-19T03:22:59.955Z,99.99
2019-05-19T03:23:59.932Z,99.99
2019-05-19T03:24:59.911Z,99.99
2019-05-19T03:26:33.160Z,99.99
2019-05-19T03:26:59.881Z,99.99
2019-05-19T03:27:59.856Z,99.99
2019-05-19T03:28:59.840Z,99.99
2019-05-19T03:29:59.813Z,99.99
2019-05-19T03:30:59.796Z,99.99
2019-05-19T03:34:18.537Z,99.99
2019-05-19T03:34:45.306Z,99.99
2019-05-19T03:35:45.284Z,99.99
2019-05-19T03:36:45.263Z,99.99
2019-05-19T03:37:45.245Z,99.99
2019-05-19T03:39:18.449Z,99.99
2019-05-19T03:39:45.217Z,99.99
2019-05-19T03:40:45.182Z,99.99
2019-05-19T03:41:45.166Z,99.99
2019-05-19T03:42:45.144Z,99.99
2019-05-19T03:46:03.781Z,99.99
2019-05-19T03:46:30.568Z,99.99
2019-05-19T03:47:30.548Z,99.99
2019-05-19T03:48:30.513Z,99.99
2019-05-19T03:49:30.502Z,99.99
2019-05-19T03:51:03.684Z,99.99
2019-05-19T03:51:31.901Z,99.99
2019-05-19T03:52:30.440Z,99.99
2019-05-19T03:53:30.420Z,99.99
2019-05-19T03:54:30.398Z,99.99
2019-05-19T03:57:48.881Z,99.99
2019-05-19T03:58:15.651Z,99.99
2019-05-19T03:59:15.695Z,99.99
2019-05-19T04:00:15.628Z,99.99
2019-05-19T04:01:15.592Z,99.99
2019-05-19T04:02:15.572Z,99.99
2019-05-19T04:03:15.553Z,99.99
2019-05-19T04:04:15.543Z,99.99
2019-05-19T04:05:15.526Z,99.99
2019-05-19T04:06:15.493Z,99.99
2019-05-19T04:09:34.200Z,99.99
2019-05-19T04:10:01.004Z,99.99
2019-05-19T04:11:00.930Z,99.99
2019-05-19T04:12:00.911Z,99.99
2019-05-19T04:13:00.891Z,99.99
2019-05-19T04:14:00.873Z,99.99
2019-05-19T04:15:00.870Z,99.99
2019-05-19T04:16:00.842Z,99.99
2019-05-19T04:17:00.817Z,99.99
2019-05-19T04:18:00.794Z,99.99
2019-05-19T04:21:19.434Z,99.99
2019-05-19T04:21:49.212Z,99.99
2019-05-19T04:23:19.394Z,99.99
2019-05-19T04:23:46.170Z,99.99
2019-05-19T04:24:46.142Z,99.99
2019-05-19T04:25:46.124Z,99.99
2019-05-19T04:26:46.104Z,99.99
2019-05-19T04:27:46.087Z,99.99
2019-05-19T04:28:46.066Z,99.99
2019-05-19T04:32:04.661Z,99.99
2019-05-19T04:32:31.430Z,99.99
2019-05-19T04:34:04.622Z,99.99
2019-05-19T04:34:31.386Z,99.99
2019-05-19T04:35:31.366Z,99.99
2019-05-19T04:36:31.346Z,99.99
2019-05-19T04:37:31.336Z,99.99
2019-05-19T04:38:31.355Z,99.99
2019-05-19T04:39:31.344Z,99.99
2019-05-19T04:42:49.774Z,99.99
2019-05-19T04:43:16.543Z,99.99
2019-05-19T04:44:49.736Z,99.99
2019-05-19T04:45:16.505Z,99.99
2019-05-19T04:46:16.522Z,99.99
2019-05-19T04:47:16.476Z,99.99
2019-05-19T04:48:16.473Z,99.99
2019-05-19T04:49:16.427Z,99.99
2019-05-19T04:50:16.408Z,99.99
2019-05-19T04:53:34.944Z,99.99
2019-05-19T04:54:01.715Z,99.99
2019-05-19T04:55:34.912Z,99.99
2019-05-19T04:58:20.042Z,99.99
2019-05-19T04:58:46.806Z,99.99
2019-05-19T05:00:19.994Z,99.99
2019-05-19T05:03:05.124Z,99.99
2019-05-19T05:03:31.895Z,99.99
2019-05-19T05:05:05.087Z,99.99
2019-05-19T05:07:50.214Z,99.99
2019-05-19T05:08:28.799Z,99.99
2019-05-19T05:09:50.175Z,99.99
2019-05-19T05:12:35.354Z,99.99
2019-05-19T05:13:02.134Z,99.99
2019-05-19T05:14:35.418Z,99.99
2019-05-19T05:17:20.443Z,99.99
2019-05-19T05:17:47.221Z,99.99
2019-05-19T05:19:20.406Z,99.99
2019-05-19T05:25:07.429Z,99.99
2019-05-19T05:26:40.621Z,99.99
2019-05-19T05:27:40.602Z,99.99
2019-05-19T05:29:52.570Z,99.99
2019-05-19T05:31:25.764Z,99.77
2019-05-19T05:32:25.744Z,98.57
2019-05-19T05:34:37.623Z,97.42
2019-05-19T05:37:22.643Z,96.32
2019-05-19T05:40:07.688Z,96.08
2019-05-19T05:42:52.753Z,94.98
2019-05-19T05:45:37.782Z,93.44
2019-05-19T05:48:22.863Z,93.11
2019-05-19T07:22:27.364Z,79.58
2019-05-19T07:23:28.794Z,80.25
2019-05-19T07:23:54.137Z,81.02
2019-05-19T07:24:54.112Z,80.44
2019-05-19T07:25:54.094Z,79.58
2019-05-19T07:26:54.078Z,79.28
2019-05-19T07:27:54.070Z,79.67
2019-05-19T07:28:54.053Z,78.52
2019-05-19T07:29:54.044Z,77.69
2019-05-19T07:30:54.028Z,77.75
2019-05-19T07:31:54.014Z,77.21
2019-05-19T07:32:54.005Z,77.56
2019-05-19T07:33:54.053Z,77.94
2019-05-19T07:34:53.975Z,78.61
2019-05-19T07:35:53.969Z,78.81
2019-05-19T07:36:53.953Z,78.48
2019-05-19T07:37:53.935Z,78.52
2019-05-19T07:38:53.918Z,78.23
2019-05-19T07:39:54.025Z,77.94
2019-05-19T07:40:53.893Z,77.78
2019-05-19T07:41:53.888Z,77.59
2019-05-19T07:42:53.865Z,77.69
2019-05-19T07:43:53.850Z,78.36
2019-05-19T07:44:53.837Z,78.94
2019-05-19T07:45:53.824Z,78.85
2019-05-19T07:46:53.810Z,79.23
2019-05-19T07:47:53.809Z,78.79
2019-05-19T07:48:53.794Z,78.50
2019-05-19T07:49:53.768Z,78.02
2019-05-19T07:50:53.755Z,78.27
2019-05-19T07:51:53.745Z,77.83
2019-05-19T07:52:53.782Z,76.82
2019-05-19T07:53:53.719Z,78.94
2019-05-19T07:54:53.717Z,78.79
2019-05-19T07:55:53.693Z,78.31
2019-05-19T07:56:53.674Z,74.74
2019-05-19T07:57:53.661Z,74.93
2019-05-19T07:58:53.649Z,75.42
2019-05-19T07:59:53.642Z,74.71
2019-05-19T08:00:53.620Z,75.03
2019-05-19T08:01:53.744Z,76.09
2019-05-19T08:02:53.593Z,76.96
2019-05-19T08:03:53.642Z,77.44
2019-05-19T08:04:53.569Z,77.06
2019-05-19T08:05:56.787Z,75.36
2019-05-19T08:06:53.553Z,73.78
2019-05-19T08:07:53.523Z,72.33
2019-05-19T08:08:53.519Z,72.14
2019-05-19T08:09:53.517Z,72.05
2019-05-19T08:10:53.487Z,72.05
2019-05-19T08:11:53.475Z,71.47
2019-05-19T08:12:53.460Z,72.24
2019-05-19T08:13:53.441Z,72.05
2019-05-19T08:14:53.427Z,73.01
2019-05-19T08:15:53.425Z,72.47
2019-05-19T08:16:53.408Z,72.08
2019-05-19T08:17:53.434Z,71.79
2019-05-19T08:18:53.376Z,71.98
2019-05-19T08:19:53.378Z,71.22
2019-05-19T08:20:53.346Z,71.06
2019-05-19T08:21:53.342Z,71.06
2019-05-19T08:22:53.372Z,70.96
2019-05-19T08:24:00.387Z,70.96
2019-05-19T08:24:53.295Z,70.86
2019-05-19T08:25:53.281Z,70.96
2019-05-19T08:26:53.284Z,70.48
2019-05-19T08:27:53.252Z,71.15
2019-05-19T08:28:53.265Z,70.86
2019-05-19T08:29:53.295Z,70.96
2019-05-19T08:30:53.213Z,70.28
2019-05-19T08:31:53.256Z,70.70
2019-05-19T08:32:53.196Z,70.42
2019-05-19T08:33:53.194Z,69.90
2019-05-19T08:34:53.160Z,70.67
2019-05-19T08:35:53.152Z,70.67
2019-05-19T08:36:53.145Z,70.86
2019-05-19T08:37:53.117Z,70.28
2019-05-19T08:38:53.100Z,70.67
2019-05-19T08:39:53.090Z,70.67
2019-05-19T08:40:53.164Z,70.51
2019-05-19T08:41:53.063Z,69.03
2019-05-19T08:42:53.047Z,69.32
2019-05-19T08:43:53.538Z,69.51
2019-05-19T08:44:53.023Z,68.77
2019-05-19T08:45:53.009Z,68.39
2019-05-19T08:46:53.006Z,68.39
2019-05-19T08:47:52.978Z,68.10
2019-05-19T08:48:53.022Z,67.71
2019-05-19T08:49:52.972Z,67.23
2019-05-19T08:50:52.938Z,67.33
2019-05-19T08:51:52.951Z,67.52
2019-05-19T08:52:52.941Z,67.43
2019-05-19T08:53:52.914Z,68.01
2019-05-19T08:54:52.883Z,68.68
2019-05-19T08:55:52.879Z,67.94
2019-05-19T08:56:52.870Z,67.17
2019-05-19T08:57:52.851Z,66.88
2019-05-19T08:58:52.838Z,67.07
2019-05-19T08:59:52.838Z,67.46
2019-05-19T09:00:52.812Z,68.33
2019-05-19T09:01:52.816Z,68.23
2019-05-19T09:02:52.775Z,67.17
2019-05-19T09:03:52.766Z,66.36
2019-05-19T09:04:52.748Z,67.04
2019-05-19T09:05:52.735Z,67.36
2019-05-19T09:06:52.774Z,66.49
2019-05-19T09:07:52.712Z,65.27
2019-05-19T09:08:52.754Z,64.43
2019-05-19T09:09:52.687Z,63.69
2019-05-19T09:10:52.671Z,62.76
2019-05-19T09:11:52.658Z,61.69
2019-05-19T09:12:52.643Z,60.95
2019-05-19T09:13:52.635Z,60.75
2019-05-19T09:14:52.627Z,60.66
2019-05-19T09:15:52.612Z,60.27
2019-05-19T09:16:52.589Z,60.47
2019-05-19T09:17:54.297Z,60.17
2019-05-19T09:18:52.570Z,60.37
2019-05-19T09:19:52.553Z,61.05
2019-05-19T09:20:52.548Z,60.82
2019-05-19T09:21:52.522Z,61.95
2019-05-19T09:22:52.519Z,62.08
2019-05-19T09:23:52.522Z,62.18
2019-05-19T09:24:52.492Z,60.44
2019-05-19T09:25:52.476Z,60.63
2019-05-19T09:26:52.467Z,60.63
2019-05-19T09:27:52.456Z,60.63
2019-05-19T09:28:52.436Z,60.63
2019-05-19T09:29:52.425Z,60.75
2019-05-19T09:30:52.437Z,60.66
2019-05-19T09:31:52.402Z,60.66
2019-05-19T09:32:52.390Z,61.72
2019-05-19T09:33:52.384Z,61.15
2019-05-19T09:34:52.368Z,60.85
2019-05-19T09:35:52.356Z,61.33
2019-05-19T09:36:52.360Z,61.43
2019-05-19T09:37:52.334Z,61.40
2019-05-19T09:38:52.492Z,60.75
2019-05-19T09:39:52.444Z,60.21
2019-05-19T09:40:52.305Z,59.43
2019-05-19T09:41:52.311Z,59.46
2019-05-19T09:42:52.289Z,58.88
2019-05-19T09:43:52.273Z,59.07
2019-05-19T09:44:52.271Z,58.69
2019-05-19T09:45:52.252Z,58.42
2019-05-19T09:46:52.250Z,57.36
2019-05-19T09:47:52.244Z,57.78
2019-05-19T09:48:52.224Z,56.41
2019-05-19T09:49:52.225Z,56.25
2019-05-19T09:50:52.204Z,55.79
2019-05-19T09:51:52.203Z,55.02
2019-05-19T09:52:52.194Z,54.60
2019-05-19T09:53:52.189Z,55.47
2019-05-19T09:54:52.177Z,55.41
2019-05-19T09:55:52.165Z,54.72
2019-05-19T09:56:52.157Z,54.31
2019-05-19T09:57:52.153Z,55.54
2019-05-19T09:58:52.138Z,55.67
2019-05-19T09:59:52.130Z,55.08
2019-05-19T10:00:52.125Z,55.96
2019-05-19T10:01:52.117Z,56.20
2019-05-19T10:02:52.161Z,58.01
2019-05-19T10:03:52.104Z,59.07
2019-05-19T10:04:52.097Z,58.78
2019-05-19T10:05:52.088Z,58.45
2019-05-19T10:06:52.115Z,57.00
2019-05-19T10:07:52.076Z,55.79
2019-05-19T10:08:52.074Z,55.69
2019-05-19T10:09:52.063Z,55.69
2019-05-19T10:10:52.062Z,55.67
2019-05-19T10:11:52.068Z,56.03
2019-05-19T10:12:52.044Z,56.81
2019-05-19T10:13:57.186Z,56.64
2019-05-19T10:16:56.559Z,56.94
2019-05-19T10:17:56.440Z,59.05
2019-05-19T10:18:56.420Z,59.50
2019-05-19T10:19:56.423Z,59.89
2019-05-19T10:20:56.409Z,60.75
2019-05-19T10:21:56.403Z,60.37
2019-05-19T10:22:56.396Z,59.14
2019-05-19T10:23:56.443Z,59.33
2019-05-19T10:25:18.167Z,57.84
2019-05-19T10:25:56.376Z,56.41
2019-05-19T10:26:56.382Z,56.77
2019-05-19T10:27:56.369Z,57.09
2019-05-19T10:28:56.368Z,55.87
2019-05-19T10:29:56.351Z,54.77
2019-05-19T10:30:59.434Z,55.44
2019-05-19T10:31:56.346Z,55.93
2019-05-19T10:32:58.703Z,55.54
2019-05-19T10:33:56.410Z,55.74
2019-05-19T10:34:56.334Z,55.83
2019-05-19T10:35:56.336Z,55.83
2019-05-19T10:36:56.319Z,55.08
2019-05-19T10:37:56.315Z,54.72
2019-05-19T10:38:56.351Z,53.10
2019-05-19T10:39:56.314Z,52.33
2019-05-19T10:40:56.298Z,52.13
2019-05-19T10:41:56.379Z,54.11
2019-05-19T10:42:56.285Z,54.58
2019-05-19T10:43:56.306Z,54.67
2019-05-19T10:44:56.280Z,55.90
2019-05-19T10:45:56.267Z,55.90
2019-05-19T10:46:56.269Z,56.87
2019-05-19T10:47:56.256Z,56.87
2019-05-19T10:48:56.262Z,55.90
2019-05-19T10:49:56.252Z,56.10
2019-05-19T10:50:56.238Z,56.59
2019-05-19T10:51:56.231Z,55.90
2019-05-19T10:52:56.228Z,55.16
2019-05-19T10:53:56.308Z,54.96
2019-05-19T10:54:56.213Z,56.41
2019-05-19T10:55:56.206Z,56.51
2019-05-19T10:56:56.232Z,55.02
2019-05-19T10:57:56.195Z,54.00
2019-05-19T10:58:56.189Z,51.99
2019-05-19T10:59:56.189Z,51.01
2019-05-19T11:00:59.609Z,50.92
2019-05-19T11:01:56.172Z,50.48
2019-05-19T11:02:56.214Z,51.45
2019-05-19T11:03:56.233Z,51.06
2019-05-19T11:04:56.159Z,51.62
2019-05-19T11:05:56.149Z,51.98
2019-05-19T11:06:56.144Z,53.05
2019-05-19T11:07:56.147Z,52.18
2019-05-19T11:08:56.134Z,51.91
2019-05-19T11:09:56.129Z,51.75
2019-05-19T11:10:56.130Z,50.99
2019-05-19T11:11:56.116Z,50.21
2019-05-19T11:12:56.128Z,49.85
2019-05-19T11:13:56.121Z,49.66
2019-05-19T11:14:56.105Z,49.73
2019-05-19T11:15:56.135Z,50.12
2019-05-19T11:16:56.118Z,49.82
2019-05-19T11:17:56.096Z,49.49
2019-05-19T11:18:56.089Z,48.32
2019-05-19T11:19:56.078Z,48.18
2019-05-19T11:20:56.072Z,49.54
2019-05-19T11:21:56.078Z,49.80
2019-05-19T11:22:56.153Z,50.07
2019-05-19T11:23:56.062Z,50.43
2019-05-19T11:24:56.059Z,50.31
2019-05-19T11:25:56.112Z,50.60
2019-05-19T11:26:56.042Z,50.60
2019-05-19T11:27:56.037Z,50.36
2019-05-19T11:28:56.038Z,49.51
2019-05-19T11:29:56.031Z,48.93
2019-05-19T11:30:56.020Z,49.58
2019-05-19T11:31:56.014Z,50.46
2019-05-19T11:32:56.012Z,49.99
2019-05-19T11:33:56.006Z,48.90
2019-05-19T11:34:56.007Z,49.00
2019-05-19T11:35:55.992Z,49.12
2019-05-19T11:36:55.987Z,48.71
2019-05-19T11:37:56.002Z,47.91
2019-05-19T11:38:55.976Z,49.99
2019-05-19T11:39:55.969Z,51.42
2019-05-19T11:40:55.963Z,52.32
2019-05-19T11:41:55.958Z,52.06
2019-05-19T11:42:55.949Z,51.21
2019-05-19T11:43:55.949Z,50.50
2019-05-19T11:44:55.939Z,51.98
2019-05-19T11:45:55.936Z,51.98
2019-05-19T11:46:55.925Z,51.23
2019-05-19T11:47:55.920Z,51.14
2019-05-19T11:48:55.911Z,50.77
2019-05-19T11:49:55.914Z,50.41
2019-05-19T11:50:55.898Z,49.63
2019-05-19T11:51:55.902Z,49.73
2019-05-19T11:52:55.883Z,49.85
2019-05-19T11:53:55.883Z,51.37
2019-05-19T11:54:55.866Z,52.15
2019-05-19T11:56:06.294Z,52.90
2019-05-19T11:56:55.856Z,52.87
2019-05-19T11:57:55.842Z,53.53
2019-05-19T11:58:55.848Z,54.62
2019-05-19T11:59:55.837Z,55.17
2019-05-19T12:00:55.817Z,54.49
2019-05-19T12:01:55.819Z,54.69
2019-05-19T12:02:55.801Z,55.85
2019-05-19T12:03:55.789Z,54.98
2019-05-19T12:04:55.790Z,54.30
2019-05-19T12:05:55.780Z,54.01
2019-05-19T12:06:55.767Z,54.49
2019-05-19T12:07:55.761Z,54.13
2019-05-19T12:08:55.755Z,53.33
2019-05-19T12:09:55.765Z,53.23
2019-05-19T12:10:55.737Z,52.85
2019-05-19T12:11:55.712Z,52.08
2019-05-19T12:12:55.753Z,53.14
2019-05-19T12:13:55.704Z,52.20
2019-05-19T12:14:55.686Z,52.87
2019-05-19T12:15:55.680Z,51.42
2019-05-19T12:16:55.686Z,50.67
2019-05-19T12:17:55.651Z,50.67
2019-05-19T12:18:57.615Z,50.29
2019-05-19T12:19:55.631Z,49.97
2019-05-19T12:20:55.629Z,49.70
2019-05-19T12:21:55.637Z,49.68
2019-05-19T12:22:55.670Z,50.09
2019-05-19T12:23:55.608Z,50.12
2019-05-19T12:24:55.583Z,49.54
2019-05-19T12:25:55.568Z,49.15
2019-05-19T12:26:55.565Z,48.69
2019-05-19T12:27:55.549Z,48.00
2019-05-19T12:28:55.543Z,47.79
2019-05-19T12:29:55.533Z,47.62
2019-05-19T12:30:55.523Z,47.52
2019-05-19T12:31:55.506Z,47.30
2019-05-19T12:32:59.066Z,47.98
2019-05-19T12:33:55.482Z,48.27
2019-05-19T12:34:55.486Z,48.18
2019-05-19T12:35:55.459Z,48.74
2019-05-19T12:36:55.512Z,49.00
2019-05-19T12:37:55.440Z,49.46
2019-05-19T12:38:55.434Z,49.19
2019-05-19T12:39:55.425Z,49.46
2019-05-19T12:40:55.419Z,49.19
2019-05-19T12:41:55.403Z,49.00
2019-05-19T12:42:55.384Z,48.61
2019-05-19T12:43:55.375Z,48.54
2019-05-19T12:44:55.363Z,47.20
2019-05-19T12:45:55.367Z,47.57
2019-05-19T12:46:55.359Z,47.26
2019-05-19T12:47:55.339Z,47.55
2019-05-19T12:48:55.327Z,47.55
2019-05-19T12:49:55.306Z,47.36
2019-05-19T12:50:55.296Z,47.94
2019-05-19T12:51:55.305Z,47.84
2019-05-19T12:52:55.279Z,47.26
2019-05-19T12:53:55.271Z,47.47
2019-05-19T12:54:55.278Z,47.11
2019-05-19T12:55:55.236Z,46.92
2019-05-19T12:56:55.224Z,47.60
2019-05-19T12:57:55.214Z,47.30
2019-05-19T12:58:55.202Z,47.02
2019-05-19T12:59:55.199Z,47.89
2019-05-19T13:00:55.191Z,47.89
2019-05-19T13:01:55.176Z,47.81
2019-05-19T13:02:55.157Z,47.13
2019-05-19T13:03:55.147Z,46.67
2019-05-19T13:05:04.697Z,46.28
2019-05-19T13:05:55.124Z,46.19
2019-05-19T13:06:55.119Z,46.36
2019-05-19T13:07:55.119Z,46.94
2019-05-19T13:08:55.095Z,47.40
2019-05-19T13:09:55.092Z,47.20
2019-05-19T13:10:55.090Z,47.02
2019-05-19T13:11:55.059Z,47.50
2019-05-19T13:12:55.052Z,47.47
2019-05-19T13:13:55.033Z,47.96
2019-05-19T13:14:55.023Z,47.86
2019-05-19T13:15:55.012Z,47.96
2019-05-19T13:16:55.009Z,48.03
2019-05-19T13:17:54.998Z,48.13
2019-05-19T13:18:54.975Z,47.74
2019-05-19T13:19:54.969Z,48.32
2019-05-19T13:20:54.959Z,47.91
2019-05-19T13:21:54.967Z,48.59
2019-05-19T13:22:54.939Z,47.99
2019-05-19T13:23:55.886Z,48.27
2019-05-19T13:24:54.909Z,48.95
2019-05-19T13:25:54.906Z,49.44
2019-05-19T13:26:56.878Z,50.02
2019-05-19T13:27:54.880Z,50.31
2019-05-19T13:28:54.859Z,50.12
2019-05-19T13:29:54.848Z,50.31
2019-05-19T13:30:54.836Z,49.54
2019-05-19T13:31:54.824Z,49.54
2019-05-19T13:32:54.818Z,49.34
2019-05-19T13:33:54.804Z,49.44
2019-05-19T13:34:54.808Z,49.92
2019-05-19T13:35:54.775Z,50.43
2019-05-19T13:36:54.779Z,52.08
2019-05-19T13:37:54.760Z,51.86
2019-05-19T13:38:54.742Z,51.95
2019-05-19T13:39:54.726Z,51.47
2019-05-19T13:40:54.721Z,51.86
2019-05-19T13:41:54.701Z,51.95
2019-05-19T13:42:54.692Z,52.14
2019-05-19T13:43:54.675Z,51.37
2019-05-19T13:44:54.665Z,51.37
2019-05-19T13:45:54.669Z,50.40
2019-05-19T13:46:54.639Z,50.21
2019-05-19T13:47:54.633Z,49.15
2019-05-19T13:48:54.617Z,48.18
2019-05-19T13:49:54.629Z,48.57
2019-05-19T13:50:54.596Z,48.37
2019-05-19T13:51:54.578Z,47.89
2019-05-19T13:52:54.576Z,49.34
2019-05-19T13:53:54.553Z,49.63
2019-05-19T13:54:54.540Z,49.63
2019-05-19T13:55:54.540Z,50.21
2019-05-19T13:56:54.524Z,49.46
2019-05-19T13:57:54.513Z,49.46
2019-05-19T13:58:54.490Z,49.05
2019-05-19T13:59:54.489Z,50.43
2019-05-19T14:00:54.467Z,49.24
2019-05-19T14:01:54.464Z,48.79
2019-05-19T14:02:54.440Z,48.57
2019-05-19T14:03:54.432Z,47.69
2019-05-19T14:04:54.425Z,48.18
2019-05-19T14:05:54.403Z,47.89
2019-05-19T14:06:54.394Z,47.89
2019-05-19T14:07:54.385Z,47.69
2019-05-19T14:08:54.380Z,47.11
2019-05-19T14:09:54.357Z,47.31
2019-05-19T14:10:54.345Z,47.60
2019-05-19T14:11:54.338Z,47.89
2019-05-19T14:12:54.325Z,49.24
2019-05-19T14:13:54.308Z,49.34
2019-05-19T14:14:54.292Z,50.38
2019-05-19T14:15:54.297Z,50.67
2019-05-19T14:16:54.271Z,51.54
2019-05-19T14:17:54.252Z,53.25
2019-05-19T14:18:54.245Z,55.45
2019-05-19T14:19:54.244Z,55.74
2019-05-19T14:20:54.222Z,56.51
2019-05-19T14:21:54.215Z,57.48
2019-05-19T14:22:54.197Z,59.48
2019-05-19T14:23:54.175Z,62.05
2019-05-19T14:24:54.171Z,68.84
2019-05-19T14:25:54.163Z,76.13
2019-05-19T14:26:54.139Z,78.17
2019-05-19T14:27:54.129Z,79.86
2019-05-19T14:28:54.118Z,83.29
2019-05-19T14:29:54.094Z,84.92
2019-05-19T14:30:54.082Z,85.21
2019-05-19T14:31:54.074Z,85.02
2019-05-19T14:32:54.054Z,84.25
2019-05-19T14:33:54.042Z,85.21
2019-05-19T14:34:54.033Z,85.60
2019-05-19T14:35:54.013Z,86.85
2019-05-19T14:36:54.014Z,88.00
2019-05-19T14:37:53.989Z,85.50
2019-05-19T14:38:53.969Z,83.19
2019-05-19T14:39:53.953Z,84.54
2019-05-19T14:42:22.059Z,84.92
2019-05-19T14:43:22.036Z,85.88
2019-05-19T14:44:22.010Z,85.40
2019-05-19T14:45:22.009Z,86.08
2019-05-19T14:46:21.990Z,85.60
2019-05-19T14:47:22.018Z,86.65
2019-05-19T14:48:21.955Z,86.27
2019-05-19T14:49:21.943Z,85.60
2019-05-19T14:50:21.922Z,84.83
2019-05-19T14:51:22.025Z,85.02
2019-05-19T14:52:21.892Z,86.94
2019-05-19T14:53:21.899Z,84.98
2019-05-19T14:54:21.862Z,86.04
2019-05-19T14:55:21.856Z,86.99
2019-05-19T14:56:21.836Z,87.38
2019-05-19T14:57:21.833Z,86.13
2019-05-19T14:58:21.806Z,87.96
2019-05-19T14:59:21.784Z,89.30
2019-05-19T15:00:21.775Z,89.40
2019-05-19T15:01:21.762Z,88.30
2019-05-19T15:02:21.750Z,88.63
2019-05-19T15:03:21.724Z,87.92
2019-05-19T15:04:21.715Z,87.72
2019-05-19T15:05:21.696Z,88.39
2019-05-19T15:06:21.684Z,87.34
2019-05-19T15:07:21.667Z,88.10
2019-05-19T15:08:21.653Z,88.10
2019-05-19T15:09:21.634Z,88.10
2019-05-19T15:10:21.625Z,87.53
2019-05-19T15:11:21.604Z,86.18
2019-05-19T15:12:21.626Z,86.85
2019-05-19T15:13:21.583Z,86.47
2019-05-19T15:14:21.552Z,87.92
2019-05-19T15:15:21.539Z,87.43
2019-05-19T15:16:21.532Z,88.01
2019-05-19T15:17:21.514Z,88.30
2019-05-19T15:18:21.500Z,89.64
2019-05-19T15:19:21.478Z,89.45
2019-05-19T15:20:21.467Z,87.92
2019-05-19T15:21:21.451Z,86.85
2019-05-19T15:22:21.429Z,88.01
2019-05-19T15:23:22.235Z,86.57
2019-05-19T15:24:21.406Z,88.39
2019-05-19T15:25:21.392Z,88.20
2019-05-19T15:26:21.367Z,86.76
2019-05-19T15:27:21.358Z,87.72
2019-05-19T15:28:21.340Z,87.82
2019-05-19T15:29:21.328Z,88.30
2019-05-19T15:30:21.332Z,87.62
2019-05-19T15:31:21.305Z,88.49
2019-05-19T15:32:21.281Z,88.59
2019-05-19T15:33:21.281Z,88.68
2019-05-19T15:34:21.242Z,87.05
2019-05-19T15:35:21.231Z,86.57
2019-05-19T15:36:21.222Z,86.28
2019-05-19T15:37:21.198Z,85.51
2019-05-19T15:38:21.189Z,84.64
2019-05-19T15:39:21.172Z,84.36
2019-05-19T15:40:21.155Z,83.59
2019-05-19T15:41:21.263Z,84.26
2019-05-19T15:42:21.121Z,84.26
2019-05-19T15:43:21.112Z,83.97
2019-05-19T15:44:21.098Z,83.01
2019-05-19T15:45:21.080Z,83.87
2019-05-19T15:46:21.062Z,82.67
2019-05-19T15:47:21.060Z,83.97
2019-05-19T15:48:21.041Z,83.06
2019-05-19T15:49:21.023Z,81.52
2019-05-19T15:51:38.634Z,80.75
2019-05-19T15:52:06.304Z,80.07
2019-05-19T15:53:05.403Z,79.88
2019-05-19T15:54:05.379Z,79.88
2019-05-19T15:55:05.357Z,80.17
2019-05-19T15:56:05.358Z,80.36
2019-05-19T15:57:05.359Z,78.83
2019-05-19T15:58:16.035Z,80.11
2019-05-19T15:59:05.312Z,80.88
2019-05-19T16:00:05.305Z,80.60
2019-05-19T16:01:05.269Z,80.02
2019-05-19T16:02:38.466Z,80.50
2019-05-19T16:03:05.244Z,78.77
2019-05-19T16:06:23.880Z,78.09
2019-05-19T16:06:50.721Z,77.61
2019-05-19T16:07:50.650Z,77.23
2019-05-19T16:08:53.847Z,77.71
2019-05-19T16:09:50.603Z,78.86
2019-05-19T16:10:50.590Z,78.58
2019-05-19T16:11:50.575Z,78.48
2019-05-19T16:12:50.566Z,77.71
2019-05-19T16:13:50.553Z,77.51
2019-05-19T16:14:50.556Z,79.63
2019-05-19T16:47:35.654Z,90.08
2019-05-19T16:49:08.853Z,90.37
2019-05-19T16:49:35.628Z,90.94
2019-05-19T16:50:35.601Z,91.37
2019-05-19T16:51:35.599Z,90.51
2019-05-19T16:52:35.595Z,90.22
2019-05-19T16:53:35.554Z,88.78
2019-05-19T16:54:35.549Z,88.15
2019-05-19T16:55:35.522Z,86.90
2019-05-19T16:56:35.515Z,86.61
2019-05-19T16:58:27.912Z,86.42
2019-05-19T16:59:08.692Z,87.38
2019-05-19T17:01:20.864Z,86.90
2019-05-19T17:02:54.051Z,86.80
2019-05-19T17:03:20.844Z,87.57
2019-05-19T17:04:20.837Z,86.61
2019-05-19T17:05:20.803Z,87.86
2019-05-19T17:06:20.790Z,88.15
2019-05-19T17:07:20.792Z,88.68
2019-05-19T17:10:06.149Z,91.75
2019-05-19T17:12:51.242Z,90.22
2019-05-19T17:15:36.345Z,91.75
2019-05-19T17:18:21.464Z,91.22
2019-05-19T17:21:06.439Z,91.90
2019-05-19T17:23:51.572Z,92.47
2019-05-19T17:26:36.774Z,92.19
2019-05-19T17:29:21.591Z,93.15
2019-05-19T17:32:06.646Z,90.55
2019-05-19T17:34:51.724Z,91.03
2019-05-19T17:37:36.806Z,88.63
2019-05-19T17:40:21.838Z,88.06
2019-05-19T18:11:11.093Z,90.45
2019-05-19T18:12:11.070Z,90.55
2019-05-19T18:13:11.064Z,90.36
2019-05-19T18:13:37.885Z,90.17
2019-05-19T18:16:56.237Z,91.75
2019-05-19T18:19:42.297Z,91.66
2019-05-19T18:23:51.392Z,91.95
2019-05-19T18:26:36.482Z,93.15
2019-05-19T18:29:30.948Z,93.87
2019-05-19T18:32:06.540Z,92.29
2019-05-19T18:34:51.574Z,92.57
2019-05-19T18:37:36.608Z,92.00
2019-05-19T18:40:21.780Z,92.57
2019-05-19T19:44:27.388Z,91.47
2019-05-19T19:45:54.290Z,90.80
2019-05-19T19:46:54.325Z,90.70
2019-05-19T19:47:21.038Z,91.09
2019-05-19T19:48:21.017Z,91.38
2019-05-19T19:49:21.014Z,91.47
2019-05-19T19:50:20.992Z,91.38
2019-05-19T19:51:20.977Z,91.05